Time;durP1;ratioP1;P1;durP2;ratioP2;P2;SDS_P1;SDS_P2;PMS_P1;PMS_P2;Temp;Humidity;BMP_temperature;BMP_pressure;BME280_temperature;BME280_humidity;BME280_pressure;Samples;Min_cycle;Max_cycle;Signal;HPM_P1;HPM_P2
2022/12/10 00:03:47;;;;;;;84.22;35.35;;;;;;;-1.85;79.27;99707.28;10313856;28;20768;-78
2022/12/10 00:08:52;;;;;;;79.93;36.03;;;;;;;-1.68;79.18;99709.22;10315372;28;20129;-78
2022/12/10 00:13:55;;;;;;;74.85;34.88;;;;;;;-1.60;78.75;99702.78;10301061;28;20089;-78
2022/12/10 00:18:58;;;;;;;73.20;36.78;;;;;;;-1.70;78.45;99708.44;10299967;28;20085;-78
2022/12/10 00:24:04;;;;;;;81.38;37.30;;;;;;;-1.75;78.27;99718.31;10299482;28;20548;-78
2022/12/10 00:29:11;;;;;;;72.53;35.78;;;;;;;-1.69;78.09;99722.47;10290412;28;20062;-79
2022/12/10 00:34:14;;;;;;;72.93;37.55;;;;;;;-1.66;77.92;99715.28;10325753;28;20043;-79
2022/12/10 00:39:21;;;;;;;75.90;35.75;;;;;;;-1.58;78.06;99712.34;10316451;28;20046;-79
2022/12/10 00:44:24;;;;;;;77.45;35.78;;;;;;;-1.50;77.87;99704.97;10324365;28;20062;-79
2022/12/10 00:49:26;;;;;;;79.43;35.85;;;;;;;-1.45;77.93;99710.91;10320877;28;20046;-79
2022/12/10 00:54:31;;;;;;;76.60;36.63;;;;;;;-1.38;77.65;99700.09;10305992;28;20050;-78
2022/12/10 00:59:34;;;;;;;71.82;33.67;;;;;;;-1.31;77.70;99697.13;10312435;28;20081;-78
2022/12/10 01:04:37;;;;;;;80.43;36.28;;;;;;;-1.25;77.77;99699.50;10301659;28;20074;-79
2022/12/10 01:09:44;;;;;;;72.72;34.83;;;;;;;-1.40;76.76;99713.31;10328599;28;20074;-79
2022/12/10 01:14:47;;;;;;;75.28;34.60;;;;;;;-1.31;77.10;99720.00;10320380;28;20155;-78
2022/12/10 01:19:51;;;;;;;72.18;33.58;;;;;;;-1.32;77.13;99723.53;10328303;28;20046;-79
2022/12/10 01:24:56;;;;;;;76.15;36.40;;;;;;;-1.29;77.32;99740.09;10305640;28;20145;-79
2022/12/10 01:29:59;;;;;;;82.18;37.65;;;;;;;-1.20;77.12;99744.13;10329011;28;20055;-78
2022/12/10 01:35:01;;;;;;;78.50;34.55;;;;;;;-1.51;76.73;99742.78;10305173;28;20049;-79
2022/12/10 01:40:07;;;;;;;69.03;32.45;;;;;;;-1.69;77.66;99746.16;10321620;28;20073;-79
2022/12/10 01:45:12;;;;;;;76.65;35.78;;;;;;;-1.44;77.62;99735.47;10326690;28;20051;-79
2022/12/10 01:50:16;;;;;;;70.28;34.65;;;;;;;-1.55;77.82;99745.59;10290527;28;20057;-79
2022/12/10 01:55:48;;;;;;;69.85;34.03;;;;;;;-1.53;77.75;99741.97;10307914;28;20058;-79
2022/12/10 02:01:04;;;;;;;66.22;33.92;;;;;;;-1.40;77.96;99747.56;10309427;28;20050;-79
2022/12/10 02:06:23;;;;;;;73.32;34.28;;;;;;;-1.42;77.25;99747.66;10347689;28;20050;-79
2022/12/10 02:11:34;;;;;;;77.30;36.30;;;;;;;-1.39;77.40;99738.75;10321414;28;20051;-79
2022/12/10 02:16:41;;;;;;;68.72;34.00;;;;;;;-1.74;77.87;99733.16;10326185;28;20050;-79
2022/12/10 02:21:48;;;;;;;77.18;36.53;;;;;;;-1.62;77.68;99735.31;10321049;28;20571;-79
2022/12/10 02:26:59;;;;;;;75.85;38.30;;;;;;;-1.51;78.29;99739.25;10317202;28;20046;-79
2022/12/10 02:32:07;;;;;;;78.28;35.35;;;;;;;-1.30;77.98;99740.16;10331552;28;20057;-79
2022/12/10 02:37:17;;;;;;;69.93;34.63;;;;;;;-1.25;77.39;99743.44;10310307;28;20078;-79
2022/12/10 02:42:24;;;;;;;76.50;34.80;;;;;;;-1.32;77.54;99737.56;10306864;28;20395;-79
2022/12/10 02:47:32;;;;;;;75.97;36.15;;;;;;;-1.30;77.75;99737.50;10328958;28;20500;-78
2022/12/10 02:52:35;;;;;;;75.03;36.05;;;;;;;-1.25;77.45;99730.28;10306027;28;20464;-78
2022/12/10 02:57:47;;;;;;;75.93;35.35;;;;;;;-1.11;77.65;99738.44;10328905;28;20548;-78
2022/12/10 03:03:00;;;;;;;;;;;;;;;-1.06;77.43;99747.00;10327960;28;20081;-79
2022/12/10 03:08:10;;;;;;;54.00;27.08;;;;;;;-1.03;77.31;99740.75;10311754;28;19983;-79
2022/12/10 03:13:17;;;;;;;70.07;33.78;;;;;;;-1.07;77.47;99742.69;10329287;28;20202;-79
2022/12/10 03:18:25;;;;;;;69.03;35.22;;;;;;;-0.97;77.31;99736.06;10328541;28;20534;-77
2022/12/10 03:23:30;;;;;;;72.15;35.22;;;;;;;-0.92;77.55;99727.09;10286696;28;20076;-77
2022/12/10 03:28:38;;;;;;;71.15;33.65;;;;;;;-0.90;77.22;99736.66;10299289;28;20056;-77
2022/12/10 03:33:43;;;;;;;66.93;32.13;;;;;;;-1.22;77.45;99741.53;10308254;28;20080;-77
2022/12/10 03:38:46;;;;;;;64.38;32.30;;;;;;;-1.06;77.50;99735.63;10335821;28;20130;-77
2022/12/10 03:43:53;;;;;;;70.57;34.58;;;;;;;-0.94;77.38;99740.34;10315283;28;20559;-78
2022/12/10 03:48:59;;;;;;;72.82;33.70;;;;;;;-0.88;77.36;99739.22;10343254;23;20061;-75
2022/12/10 03:54:02;;;;;;;71.03;33.53;;;;;;;-0.89;77.65;99735.72;10345682;28;20050;-77
2022/12/10 03:59:05;;;;;;;57.55;30.65;;;;;;;-0.87;77.10;99735.66;10354236;28;20156;-76
2022/12/10 04:04:09;;;;;;;60.58;31.33;;;;;;;-0.85;77.30;99724.13;10405432;28;20117;-75
2022/12/10 04:09:14;;;;;;;58.55;31.70;;;;;;;-0.86;77.04;99742.66;10384123;28;20054;-75
2022/12/10 04:19:38;;;;;;;61.53;31.63;;;;;;;-0.90;76.96;99739.31;10390041;28;20062;-77
2022/12/10 04:30:01;;;;;;;62.55;31.38;;;;;;;-0.89;76.96;99746.28;10347553;28;20045;-76
2022/12/10 04:35:07;;;;;;;62.78;32.35;;;;;;;-0.85;76.83;99754.91;10390988;28;20042;-76
2022/12/10 04:40:11;;;;;;;59.63;30.52;;;;;;;-0.84;76.83;99754.84;10363386;28;20041;-75
2022/12/10 04:45:14;;;;;;;61.33;32.22;;;;;;;-0.87;77.28;99756.78;10381818;28;20054;-77
2022/12/10 04:50:18;;;;;;;63.42;31.92;;;;;;;-0.84;76.92;99749.56;10394187;28;20129;-78
2022/12/10 04:55:21;;;;;;;64.38;31.13;;;;;;;-0.78;77.08;99746.66;10392868;28;20042;-75
2022/12/10 05:00:24;;;;;;;64.50;32.33;;;;;;;-0.91;77.21;99753.38;10403957;28;20049;-77
2022/12/10 05:05:28;;;;;;;62.13;31.48;;;;;;;-0.87;76.94;99762.88;10381603;28;20045;-76
2022/12/10 05:10:31;;;;;;;61.65;31.10;;;;;;;-0.90;77.02;99763.03;10388845;28;20083;-77
2022/12/10 05:15:38;;;;;;;66.43;32.80;;;;;;;-0.85;77.32;99765.44;10384895;28;20553;-77
2022/12/10 05:20:42;;;;;;;65.65;33.35;;;;;;;-0.89;77.27;99755.97;10372490;28;20406;-75
2022/12/10 05:25:53;;;;;;;61.10;31.60;;;;;;;-0.92;77.50;99750.84;10369524;28;20506;-77
2022/12/10 05:30:56;;;;;;;67.85;32.65;;;;;;;-1.08;77.63;99756.75;10394974;28;20045;-77
2022/12/10 05:36:03;;;;;;;65.75;33.00;;;;;;;-0.97;77.65;99757.16;10398669;28;20117;-77
2022/12/10 05:41:07;;;;;;;69.57;35.78;;;;;;;-0.81;77.66;99757.34;10388986;28;20474;-77
2022/12/10 05:46:13;;;;;;;59.70;31.73;;;;;;;-1.09;77.95;99757.69;10400973;28;20050;-77
2022/12/10 05:51:20;;;;;;;59.70;32.50;;;;;;;-1.04;78.27;99757.47;10404927;28;20056;-77
2022/12/10 05:56:24;;;;;;;63.20;33.03;;;;;;;-0.86;78.01;99769.00;10383476;28;20409;-77
2022/12/10 06:01:29;;;;;;;59.83;30.55;;;;;;;-0.92;77.59;99769.28;10387263;28;20117;-77
2022/12/10 06:06:36;;;;;;;61.50;32.28;;;;;;;-0.93;77.83;99776.34;10396461;28;20041;-77
2022/12/10 06:11:39;;;;;;;59.13;30.67;;;;;;;-1.15;78.25;99771.13;10403091;28;20082;-77
2022/12/10 06:16:42;;;;;;;61.13;33.33;;;;;;;-1.04;77.95;99768.00;10387791;28;20222;-77
2022/12/10 06:21:46;;;;;;;60.17;30.50;;;;;;;-0.94;78.27;99777.25;10376224;28;20384;-77
2022/12/10 06:26:49;;;;;;;59.20;32.25;;;;;;;-0.96;77.88;99773.81;10389007;28;20046;-78
2022/12/10 06:31:58;;;;;;;56.50;31.58;;;;;;;-1.02;77.75;99777.56;10408120;28;20037;-76
2022/12/10 06:37:02;;;;;;;55.45;30.70;;;;;;;-1.07;78.15;99774.31;10412621;28;20057;-76
2022/12/10 06:42:05;;;;;;;59.10;30.95;;;;;;;-1.01;78.12;99783.72;10401182;28;20487;-77
2022/12/10 06:47:08;;;;;;;60.70;32.38;;;;;;;-0.94;78.49;99782.53;10404874;28;20076;-77
2022/12/10 06:52:12;;;;;;;69.28;33.33;;;;;;;-0.86;78.29;99796.22;10409689;28;20125;-77
2022/12/10 06:57:17;;;;;;;64.53;31.67;;;;;;;-0.76;78.07;99792.28;10396111;28;20103;-76
2022/12/10 07:02:19;;;;;;;68.28;33.50;;;;;;;-0.69;78.38;99795.50;10396708;28;20465;-77
2022/12/10 07:07:24;;;;;;;61.45;32.53;;;;;;;-0.61;77.92;99792.53;10387965;28;20486;-76
2022/12/10 07:12:27;;;;;;;68.10;34.47;;;;;;;-0.64;77.97;99811.13;10397795;28;20092;-77
2022/12/10 07:17:30;;;;;;;70.60;33.95;;;;;;;-0.64;77.95;99800.59;10403195;28;20454;-77
2022/12/10 07:22:34;;;;;;;67.47;33.53;;;;;;;-0.76;78.12;99809.91;10375358;28;20073;-77
2022/12/10 07:27:37;;;;;;;65.82;32.90;;;;;;;-0.76;77.98;99816.03;10402188;28;20144;-76
2022/12/10 07:32:40;;;;;;;68.30;33.15;;;;;;;-0.77;77.62;99816.97;10393956;28;20112;-76
2022/12/10 07:37:44;;;;;;;61.65;31.88;;;;;;;-0.67;78.20;99822.69;10399294;28;20081;-77
2022/12/10 07:42:47;;;;;;;66.35;33.20;;;;;;;-0.62;78.18;99823.34;10382103;28;20095;-77
2022/12/10 07:47:50;;;;;;;66.97;33.75;;;;;;;-0.54;78.11;99831.78;10388554;28;20125;-76
2022/12/10 07:52:54;;;;;;;68.63;34.55;;;;;;;-0.48;78.09;99833.28;10373987;28;20038;-76
2022/12/10 07:57:56;;;;;;;60.05;32.92;;;;;;;-0.52;77.68;99837.00;10384648;28;20049;-77
2022/12/10 08:02:59;;;;;;;57.78;26.00;;;;;;;-0.45;78.21;99837.56;10406665;28;20041;-77
2022/12/10 08:08:04;;;;;;;120.07;54.65;;;;;;;-0.20;78.49;99848.72;10380743;28;20076;-78
2022/12/10 08:13:09;;;;;;;57.78;33.40;;;;;;;0.13;78.05;99854.25;10389330;28;20096;-77
2022/12/10 08:18:12;;;;;;;62.63;34.03;;;;;;;0.15;77.53;99857.69;10386328;28;20038;-77
2022/12/10 08:23:16;;;;;;;62.40;33.70;;;;;;;0.10;77.39;99848.28;10372793;28;20789;-77
2022/12/10 08:28:19;;;;;;;66.82;38.25;;;;;;;0.02;77.31;99859.19;10389500;28;20055;-77
2022/12/10 08:33:22;;;;;;;64.95;34.55;;;;;;;0.03;77.36;99858.28;10406349;28;20077;-77
2022/12/10 08:38:26;;;;;;;64.35;35.15;;;;;;;0.04;77.39;99865.25;10399012;28;20116;-77
2022/12/10 08:43:29;;;;;;;66.13;35.72;;;;;;;0.04;77.17;99870.53;10402962;28;20037;-77
2022/12/10 08:48:32;;;;;;;67.57;35.80;;;;;;;0.00;76.68;99882.19;10405572;28;20048;-77
2022/12/10 08:53:37;;;;;;;69.22;37.33;;;;;;;0.06;76.87;99879.25;10403293;28;20048;-77
2022/12/10 08:58:40;;;;;;;66.10;37.17;;;;;;;0.10;76.77;99874.69;10397380;28;20041;-76
2022/12/10 09:03:44;;;;;;;69.00;36.10;;;;;;;0.20;76.61;99885.69;10399057;28;20044;-77
2022/12/10 09:08:49;;;;;;;64.97;35.30;;;;;;;0.24;76.44;99882.81;10400815;28;20132;-77
2022/12/10 09:13:52;;;;;;;63.30;34.83;;;;;;;0.26;76.19;99888.03;10398582;28;20033;-76
2022/12/10 09:18:57;;;;;;;63.40;34.85;;;;;;;0.26;76.23;99891.53;10414783;28;20045;-77
2022/12/10 09:24:01;;;;;;;57.97;31.90;;;;;;;0.29;76.07;99899.31;10409487;28;20073;-76
2022/12/10 09:29:03;;;;;;;57.35;31.10;;;;;;;-0.07;75.82;99904.50;10416373;28;20128;-76
2022/12/10 09:34:07;;;;;;;62.85;32.28;;;;;;;0.11;76.13;99908.06;10406698;28;20503;-76
2022/12/10 09:39:11;;;;;;;63.97;37.00;;;;;;;0.30;76.13;99916.03;10382070;28;20164;-78
2022/12/10 09:44:29;;;;;;;64.70;33.45;;;;;;;0.43;76.11;99905.75;10415069;28;20136;-79
2022/12/10 09:49:48;;;;;;;59.40;31.80;;;;;;;0.53;75.93;99910.53;10420062;23;20061;-78
2022/12/10 09:54:57;;;;;;;54.72;29.08;;;;;;;0.60;75.15;99904.03;10357380;28;20054;-78
2022/12/10 10:00:07;;;;;;;58.80;31.67;;;;;;;0.64;74.66;99909.19;10358323;28;20098;-79
2022/12/10 10:05:21;;;;;;;54.38;29.55;;;;;;;0.67;73.78;99915.16;10343756;28;20046;-78
2022/12/10 10:10:28;;;;;;;41.58;23.85;;;;;;;0.64;72.88;99914.47;10345941;28;20038;-78
2022/12/10 10:15:32;;;;;;;47.72;26.95;;;;;;;0.75;73.09;99902.44;10344786;28;20117;-78
2022/12/10 10:20:36;;;;;;;28.25;16.52;;;;;;;0.88;72.29;99901.84;10325013;28;20239;-78
2022/12/10 10:25:40;;;;;;;31.50;17.63;;;;;;;0.92;71.46;99898.13;10329602;28;20558;-79
2022/12/10 10:30:44;;;;;;;19.77;11.50;;;;;;;0.47;66.64;99894.13;10302819;28;20054;-78
2022/12/10 10:35:50;;;;;;;36.63;21.92;;;;;;;0.51;70.33;99899.19;10331606;28;20488;-79
2022/12/10 10:40:56;;;;;;;45.75;27.23;;;;;;;0.31;73.34;99897.47;10343574;28;20462;-79
2022/12/10 10:46:02;;;;;;;50.05;28.15;;;;;;;0.45;74.11;99901.25;10377635;28;20064;-79
2022/12/10 10:51:16;;;;;;;44.92;24.67;;;;;;;0.59;73.81;99896.19;10394532;28;20509;-78
2022/12/10 10:56:22;;;;;;;40.55;24.67;;;;;;;0.54;72.59;99899.03;10379198;28;20696;-80
2022/12/10 11:01:27;;;;;;;49.92;27.13;;;;;;;0.42;72.72;99904.91;10389476;28;20049;-80
2022/12/10 11:06:30;;;;;;;46.05;26.77;;;;;;;0.60;72.65;99911.09;10401102;28;20049;-80
2022/12/10 11:11:36;;;;;;;37.80;23.42;;;;;;;0.76;72.42;99905.94;10386888;28;20045;-79
2022/12/10 11:16:40;;;;;;;37.22;21.67;;;;;;;0.77;70.14;99903.22;10381724;28;20128;-81
2022/12/10 11:21:43;;;;;;;40.10;23.90;;;;;;;0.87;69.65;99900.13;10416121;28;20057;-79
2022/12/10 11:27:02;;;;;;;37.05;23.02;;;;;;;0.94;69.81;99898.91;10409067;28;20076;-79
2022/12/10 11:32:24;;;;;;;22.77;13.38;;;;;;;0.66;62.65;99896.72;10383694;28;20058;-79
2022/12/10 11:37:33;;;;;;;27.17;15.97;;;;;;;0.92;64.62;99892.84;10379709;28;20055;-81
2022/12/10 11:42:50;;;;;;;25.58;14.18;;;;;;;1.07;65.29;99900.03;10379190;28;20064;-79
2022/12/10 11:48:07;;;;;;;24.30;14.68;;;;;;;1.11;65.54;99900.72;10374159;28;20049;-79
2022/12/10 11:53:42;;;;;;;25.05;14.65;;;;;;;1.07;65.27;99913.25;10375701;28;20054;-79
2022/12/10 11:58:59;;;;;;;23.60;14.85;;;;;;;1.04;65.31;99913.38;10389428;28;20045;-81
2022/12/10 12:04:34;;;;;;;22.48;14.32;;;;;;;1.05;64.96;99913.31;10401440;28;20108;-78
2022/12/10 12:09:47;;;;;;;29.60;18.70;;;;;;;1.03;64.35;99911.69;10394594;28;20053;-79
2022/12/10 12:14:56;;;;;;;26.33;16.80;;;;;;;1.05;64.45;99918.59;10395597;28;20041;-79
2022/12/10 12:20:01;;;;;;;27.45;15.63;;;;;;;1.08;63.77;99916.75;10384032;28;20049;-79
2022/12/10 12:25:09;;;;;;;23.77;13.82;;;;;;;0.89;61.99;99917.66;10388226;28;21323;-79
2022/12/10 12:30:18;;;;;;;24.27;14.10;;;;;;;0.91;61.77;99910.50;10388755;28;20049;-78
2022/12/10 12:35:27;;;;;;;24.85;14.13;;;;;;;1.18;62.84;99908.28;10394994;28;20056;-80
2022/12/10 12:40:35;;;;;;;26.02;14.13;;;;;;;1.26;61.11;99910.53;10373536;28;20053;-79
2022/12/10 12:45:41;;;;;;;22.98;13.65;;;;;;;1.08;60.16;99909.66;10360037;28;20042;-79
2022/12/10 12:50:47;;;;;;;25.27;16.27;;;;;;;1.13;60.25;99915.59;10391340;28;20113;-78
2022/12/10 12:56:00;;;;;;;31.05;17.35;;;;;;;1.26;60.80;99907.88;10405226;28;20045;-79
2022/12/10 13:01:13;;;;;;;27.63;16.63;;;;;;;1.26;59.48;99914.06;10401650;28;20703;-80
2022/12/10 13:06:21;;;;;;;24.20;15.05;;;;;;;0.77;59.16;99920.88;10380124;28;20049;-80
2022/12/10 13:11:35;;;;;;;21.80;12.82;;;;;;;0.91;59.46;99920.22;10403595;28;20071;-80
2022/12/10 13:16:58;;;;;;;22.60;13.20;;;;;;;0.97;58.37;99928.72;10399477;28;20179;-80
2022/12/10 13:22:10;;;;;;;22.40;14.27;;;;;;;1.03;58.01;99931.03;10401951;28;20079;-80
2022/12/10 13:27:19;;;;;;;24.00;13.65;;;;;;;0.79;58.12;99929.59;10378163;28;20420;-79
2022/12/10 13:32:25;;;;;;;25.88;13.65;;;;;;;0.86;57.69;99919.59;10399076;28;20094;-80
2022/12/10 13:37:31;;;;;;;22.95;14.73;;;;;;;0.60;59.90;99933.13;10403050;28;20072;-80
2022/12/10 13:48:29;;;;;;;31.60;15.90;;;;;;;0.91;61.05;99933.44;10400235;28;20498;-80
2022/12/10 13:53:42;;;;;;;25.10;14.40;;;;;;;1.02;61.27;99933.78;10338850;28;20341;-79
2022/12/10 13:58:53;;;;;;;24.85;14.65;;;;;;;1.05;61.03;99938.91;10373156;28;20049;-79
2022/12/10 14:04:22;;;;;;;26.90;15.43;;;;;;;0.95;60.44;99943.78;10374223;28;20054;-79
2022/12/10 14:09:28;;;;;;;24.52;14.40;;;;;;;0.93;60.86;99950.94;10371721;28;20513;-79
2022/12/10 14:14:34;;;;;;;24.63;14.75;;;;;;;0.87;61.16;99953.88;10391261;28;20053;-79
2022/12/10 14:19:39;;;;;;;25.42;15.05;;;;;;;0.72;61.06;99955.47;10400236;28;20060;-79
2022/12/10 14:24:43;;;;;;;28.77;16.23;;;;;;;0.71;61.25;99947.59;10401180;28;20341;-79
2022/12/10 14:29:46;;;;;;;27.42;16.17;;;;;;;0.65;62.09;99942.59;10391524;28;20037;-78
2022/12/10 14:34:55;;;;;;;28.55;16.83;;;;;;;0.56;62.68;99950.03;10364948;28;20753;-79
2022/12/10 14:39:58;;;;;;;26.38;16.55;;;;;;;0.54;62.75;99956.31;10367871;28;20053;-79
2022/12/10 14:45:04;;;;;;;29.00;16.35;;;;;;;0.53;62.87;99955.47;10391711;28;20042;-78
2022/12/10 14:50:12;;;;;;;31.05;17.38;;;;;;;0.50;63.67;99955.63;10394029;28;20052;-78
2022/12/10 14:55:16;;;;;;;29.23;16.80;;;;;;;0.41;63.57;99947.25;10394099;28;20619;-78
2022/12/10 15:00:21;;;;;;;28.70;16.17;;;;;;;0.31;63.91;99963.53;10387025;28;20073;-79
2022/12/10 15:05:28;;;;;;;36.92;18.38;;;;;;;0.29;63.49;99965.38;10395737;28;20050;-78
2022/12/10 15:10:37;;;;;;;31.25;18.35;;;;;;;0.26;63.26;99972.59;10393429;28;20049;-79
2022/12/10 15:15:41;;;;;;;34.58;19.40;;;;;;;0.29;63.99;99969.81;10396428;28;20176;-80
2022/12/10 15:20:49;;;;;;;32.35;17.75;;;;;;;0.29;64.53;99975.09;10399290;28;20105;-80
2022/12/10 15:25:59;;;;;;;33.05;17.17;;;;;;;0.15;63.61;99979.19;10396624;28;20053;-79
2022/12/10 15:31:12;;;;;;;30.42;16.73;;;;;;;0.23;63.76;99984.16;10395436;28;20064;-79
2022/12/10 15:36:24;;;;;;;48.20;22.05;;;;;;;0.24;63.28;99985.84;10394377;28;20049;-79
2022/12/10 15:41:44;;;;;;;52.33;23.43;;;;;;;0.28;64.15;99973.38;10393723;28;20051;-79
2022/12/10 15:46:49;;;;;;;35.65;19.23;;;;;;;0.30;64.35;99977.66;10387842;28;20060;-80
2022/12/10 15:51:53;;;;;;;47.80;25.98;;;;;;;0.29;64.32;99983.88;10394658;28;20064;-79
2022/12/10 15:56:56;;;;;;;44.60;24.17;;;;;;;0.34;64.44;99983.66;10386134;28;20063;-79
2022/12/10 16:02:02;;;;;;;44.45;23.75;;;;;;;0.36;63.98;99976.53;10387646;28;20057;-79
2022/12/10 16:07:08;;;;;;;37.67;20.00;;;;;;;0.23;63.60;99984.16;10390598;28;20195;-79
2022/12/10 16:12:12;;;;;;;32.03;18.98;;;;;;;0.13;64.65;99978.41;10387531;28;20070;-79
2022/12/10 16:17:15;;;;;;;39.40;20.98;;;;;;;0.21;64.84;99986.00;10390234;28;20049;-79
2022/12/10 16:22:20;;;;;;;47.28;24.98;;;;;;;0.28;64.36;99981.31;10386501;28;20045;-79
2022/12/10 16:27:22;;;;;;;48.10;25.20;;;;;;;0.27;64.08;99979.56;10382705;28;20411;-79
2022/12/10 16:32:25;;;;;;;34.33;18.95;;;;;;;0.25;64.22;99982.31;10388484;28;21265;-79
2022/12/10 16:37:29;;;;;;;34.75;19.13;;;;;;;0.21;64.47;99977.22;10377434;28;20046;-80
2022/12/10 16:42:32;;;;;;;33.97;20.25;;;;;;;0.22;65.02;99984.19;10395857;28;20085;-80
2022/12/10 16:47:35;;;;;;;39.55;20.70;;;;;;;0.20;64.79;99978.16;10392282;28;20485;-79
2022/12/10 16:52:40;;;;;;;39.03;22.73;;;;;;;0.24;64.63;99975.28;10395554;28;20049;-80
2022/12/10 16:57:44;;;;;;;39.00;21.90;;;;;;;0.22;64.57;99995.66;10386766;28;20041;-79
2022/12/10 17:02:47;;;;;;;38.22;22.63;;;;;;;0.20;65.00;99992.22;10402665;28;20113;-79
2022/12/10 17:07:51;;;;;;;44.42;23.88;;;;;;;0.21;64.94;99993.91;10408056;28;20050;-79
2022/12/10 17:12:54;;;;;;;41.38;24.52;;;;;;;0.20;64.72;99996.66;10358855;28;20074;-78
2022/12/10 17:17:57;;;;;;;43.20;24.02;;;;;;;0.15;64.48;99996.84;10350029;28;20053;-79
2022/12/10 17:23:01;;;;;;;42.72;24.17;;;;;;;0.09;64.61;99995.31;10353924;28;20111;-79
2022/12/10 17:28:04;;;;;;;40.13;22.00;;;;;;;0.05;65.20;100012.22;10351006;28;20053;-78
2022/12/10 17:33:09;;;;;;;47.95;26.67;;;;;;;0.07;65.23;99999.81;10369503;28;20164;-78
2022/12/10 17:38:17;;;;;;;41.13;23.20;;;;;;;-0.08;66.00;99997.84;10375590;28;20606;-79
2022/12/10 17:43:20;;;;;;;42.28;23.02;;;;;;;-0.08;66.59;100011.91;10353262;28;20052;-78
2022/12/10 17:48:23;;;;;;;43.60;25.08;;;;;;;-0.03;67.02;100008.19;10359309;28;20041;-79
2022/12/10 17:53:28;;;;;;;41.72;23.92;;;;;;;-0.05;67.10;100010.91;10372262;28;20053;-78
2022/12/10 17:58:31;;;;;;;45.95;26.35;;;;;;;0.01;67.36;100002.72;10370762;28;20042;-78
2022/12/10 18:03:34;;;;;;;41.90;24.08;;;;;;;0.05;67.23;100011.34;10355863;28;20046;-79
2022/12/10 18:08:38;;;;;;;48.67;26.48;;;;;;;0.06;67.14;100015.75;10366134;28;20058;-78
2022/12/10 18:13:41;;;;;;;47.60;25.60;;;;;;;0.07;67.35;100020.09;10392032;28;20063;-78
2022/12/10 18:18:49;;;;;;;44.25;24.08;;;;;;;0.15;67.42;100020.59;10379478;28;20057;-78
2022/12/10 18:23:55;;;;;;;45.58;24.85;;;;;;;0.09;67.39;100019.09;10376138;28;20057;-78
2022/12/10 18:29:00;;;;;;;46.17;24.30;;;;;;;0.06;67.66;100019.22;10395644;28;20254;-78
2022/12/10 18:34:06;;;;;;;45.33;23.25;;;;;;;-0.03;67.80;100035.44;10399331;28;20768;-79
2022/12/10 18:39:16;;;;;;;42.80;23.48;;;;;;;-0.06;68.42;100030.31;10398892;28;20068;-78
2022/12/10 18:44:22;;;;;;;46.30;24.05;;;;;;;-0.07;68.51;100028.59;10381675;28;20057;-81
2022/12/10 18:49:26;;;;;;;50.38;26.55;;;;;;;-0.09;68.80;100036.56;10377693;28;20045;-80
2022/12/10 18:54:30;;;;;;;48.50;24.50;;;;;;;-0.08;68.80;100032.19;10386316;28;20080;-78
2022/12/10 18:59:33;;;;;;;49.42;24.85;;;;;;;-0.13;68.97;100032.38;10391613;28;20064;-78
2022/12/10 19:04:36;;;;;;;51.22;24.95;;;;;;;-0.22;69.61;100030.13;10395480;28;20041;-79
2022/12/10 19:09:41;;;;;;;45.03;24.10;;;;;;;-0.20;69.48;100033.53;10394169;28;20045;-79
2022/12/10 19:14:44;;;;;;;47.97;25.52;;;;;;;-0.24;69.71;100034.59;10393480;28;20052;-79
2022/12/10 19:19:46;;;;;;;47.03;24.63;;;;;;;-0.30;69.92;100037.50;10394198;28;20049;-78
2022/12/10 19:24:51;;;;;;;39.08;22.45;;;;;;;-0.34;70.29;100035.91;10391857;28;20521;-79
2022/12/10 19:29:53;;;;;;;42.47;21.92;;;;;;;-0.32;69.80;100034.91;10401004;28;21793;-78
2022/12/10 19:34:56;;;;;;;42.67;24.10;;;;;;;-0.33;70.03;100027.03;10388333;28;20064;-78
2022/12/10 19:40:01;;;;;;;46.58;24.30;;;;;;;-0.36;69.98;100030.66;10390237;28;20147;-78
2022/12/10 19:45:04;;;;;;;42.58;23.00;;;;;;;-0.31;69.75;100031.34;10395049;28;20072;-79
2022/12/10 19:50:10;;;;;;;44.95;21.73;;;;;;;-0.21;69.82;100036.25;10397652;28;20047;-78
2022/12/10 19:55:16;;;;;;;42.70;20.95;;;;;;;-0.21;69.74;100031.81;10391008;28;20573;-79
2022/12/10 20:00:22;;;;;;;47.45;22.38;;;;;;;-0.25;69.55;100037.28;10396617;28;20045;-80
2022/12/10 20:05:25;;;;;;;45.47;23.95;;;;;;;-0.36;69.37;100049.13;10387923;28;20127;-79
2022/12/10 20:10:30;;;;;;;45.83;23.60;;;;;;;-0.39;69.29;100043.13;10394048;28;20558;-80
2022/12/10 20:15:32;;;;;;;45.03;23.85;;;;;;;-0.34;69.59;100033.25;10400698;28;20046;-80
2022/12/10 20:20:35;;;;;;;43.60;23.17;;;;;;;-0.40;69.63;100037.00;10428249;28;20081;-78
2022/12/10 20:25:43;;;;;;;42.80;22.48;;;;;;;-0.36;69.68;100033.31;10412341;28;20048;-78
2022/12/10 20:30:46;;;;;;;45.33;23.50;;;;;;;-0.42;69.56;100038.84;10422525;28;20049;-79
2022/12/10 20:35:49;;;;;;;46.15;23.25;;;;;;;-0.54;70.40;100031.44;10442314;28;20086;-80
2022/12/10 20:40:54;;;;;;;47.75;25.02;;;;;;;-0.43;70.21;100034.50;10442105;28;20038;-80
2022/12/10 20:45:56;;;;;;;45.97;24.17;;;;;;;-0.36;69.94;100022.75;10440092;28;20041;-80
2022/12/10 20:50:59;;;;;;;52.10;25.10;;;;;;;-0.34;69.93;100020.06;10436852;28;20065;-79
2022/12/10 20:56:04;;;;;;;51.13;24.50;;;;;;;-0.66;70.53;100018.72;10425683;28;20041;-80
2022/12/10 21:01:07;;;;;;;51.25;25.80;;;;;;;-0.36;70.64;100022.75;10443931;28;20030;-80
2022/12/10 21:06:13;;;;;;;51.55;24.83;;;;;;;-0.47;70.41;100024.97;10443292;28;20042;-80
2022/12/10 21:11:18;;;;;;;45.50;23.40;;;;;;;-0.66;71.14;100019.59;10436557;28;20038;-80
2022/12/10 21:16:22;;;;;;;45.38;20.38;;;;;;;-0.74;70.36;100034.88;10439905;28;20049;-80
2022/12/10 21:21:26;;;;;;;48.88;22.38;;;;;;;-0.49;69.90;100037.41;10425184;28;20060;-80
2022/12/10 21:26:30;;;;;;;51.00;23.45;;;;;;;-0.74;70.12;100026.94;10445880;28;20096;-80
2022/12/10 21:31:38;;;;;;;45.35;22.35;;;;;;;-0.60;69.88;100035.19;10432418;28;20034;-80
2022/12/10 21:36:41;;;;;;;42.22;22.25;;;;;;;-0.52;69.29;100041.03;10434534;28;20038;-79
2022/12/10 21:47:06;;;;;;;45.17;20.73;;;;;;;-0.42;69.40;100033.56;10436664;28;20042;-79
2022/12/10 21:52:08;;;;;;;44.38;21.70;;;;;;;-0.43;69.22;100029.22;10438839;28;20033;-79
2022/12/10 21:57:13;;;;;;;46.22;22.85;;;;;;;-0.40;69.52;100031.72;10439241;28;20084;-79
2022/12/10 22:02:16;;;;;;;43.08;22.35;;;;;;;-0.35;69.38;100039.47;10443037;28;20057;-81
2022/12/10 22:07:18;;;;;;;47.10;24.00;;;;;;;-0.37;69.41;100042.16;10442320;28;20073;-80
2022/12/10 22:12:23;;;;;;;50.17;24.02;;;;;;;-0.38;70.00;100037.81;10425198;28;20052;-80
2022/12/10 22:17:26;;;;;;;47.53;24.63;;;;;;;-0.39;70.08;100038.72;10439760;28;20060;-80
2022/12/10 22:22:28;;;;;;;50.72;25.92;;;;;;;-0.42;70.19;100038.84;10442823;28;20406;-80
2022/12/10 22:27:34;;;;;;;50.40;25.00;;;;;;;-0.37;70.32;100038.66;10453014;28;20045;-79
2022/12/10 22:32:38;;;;;;;48.30;23.55;;;;;;;-0.37;70.36;100034.25;10428901;28;20115;-80
2022/12/10 22:37:41;;;;;;;48.65;24.70;;;;;;;-0.43;70.17;100034.50;10459565;28;20035;-80
2022/12/10 22:42:45;;;;;;;46.33;23.50;;;;;;;-0.51;69.75;100032.16;10452855;28;20041;-80
2022/12/10 22:47:51;;;;;;;42.55;22.73;;;;;;;-0.58;69.75;100025.41;10464539;28;20061;-80
2022/12/10 22:52:54;;;;;;;48.95;23.05;;;;;;;-0.63;70.05;100022.13;10453079;28;20045;-81
2022/12/10 22:57:58;;;;;;;44.17;22.02;;;;;;;-0.56;69.91;100020.94;10451844;28;20049;-80
2022/12/10 23:03:01;;;;;;;46.50;22.95;;;;;;;-0.54;70.03;100019.09;10452153;28;20045;-80
2022/12/10 23:08:06;;;;;;;40.80;20.58;;;;;;;-0.67;69.48;100017.03;10433595;28;20111;-79
2022/12/10 23:13:13;;;;;;;42.85;20.75;;;;;;;-0.72;69.63;100018.06;10439432;28;20072;-81
2022/12/10 23:18:16;;;;;;;44.90;21.83;;;;;;;-0.75;69.39;100022.59;10447105;28;20060;-80
2022/12/10 23:23:19;;;;;;;42.17;21.05;;;;;;;-0.67;68.88;100023.16;10444220;28;20045;-80
2022/12/10 23:28:23;;;;;;;39.08;20.77;;;;;;;-0.73;68.97;100016.34;10449069;28;20045;-80
2022/12/10 23:33:26;;;;;;;39.90;20.85;;;;;;;-0.69;68.68;100013.59;10447982;28;20057;-80
2022/12/10 23:38:29;;;;;;;40.47;20.35;;;;;;;-0.73;68.76;100015.50;10447087;28;20048;-80